sensor_id;sensor_type;location;lat;lon;timestamp;P1;durP1;ratioP1;P2;durP2;ratioP2
54123;SDS011;55741;53.252;5.788;2022-07-29T00:00:07;4.88;;;1.77;;
54123;SDS011;55741;53.252;5.788;2022-07-29T00:02:34;3.65;;;1.90;;
54123;SDS011;55741;53.252;5.788;2022-07-29T00:05:00;3.67;;;1.90;;
54123;SDS011;55741;53.252;5.788;2022-07-29T00:07:26;3.85;;;2.00;;
54123;SDS011;55741;53.252;5.788;2022-07-29T00:09:52;7.38;;;2.67;;
54123;SDS011;55741;53.252;5.788;2022-07-29T00:12:19;4.88;;;1.80;;
54123;SDS011;55741;53.252;5.788;2022-07-29T00:14:46;8.32;;;2.10;;
54123;SDS011;55741;53.252;5.788;2022-07-29T00:17:12;5.47;;;2.20;;
54123;SDS011;55741;53.252;5.788;2022-07-29T00:19:38;4.65;;;1.85;;
54123;SDS011;55741;53.252;5.788;2022-07-29T00:22:04;5.55;;;1.92;;
54123;SDS011;55741;53.252;5.788;2022-07-29T00:24:30;8.50;;;2.60;;
54123;SDS011;55741;53.252;5.788;2022-07-29T00:26:55;4.55;;;1.88;;
54123;SDS011;55741;53.252;5.788;2022-07-29T00:29:21;4.75;;;2.15;;
54123;SDS011;55741;53.252;5.788;2022-07-29T00:31:47;4.55;;;2.33;;
54123;SDS011;55741;53.252;5.788;2022-07-29T00:34:13;5.05;;;1.98;;
54123;SDS011;55741;53.252;5.788;2022-07-29T00:36:57;4.47;;;2.00;;
54123;SDS011;55741;53.252;5.788;2022-07-29T00:39:23;2.83;;;1.90;;
54123;SDS011;55741;53.252;5.788;2022-07-29T00:41:49;4.50;;;2.30;;
54123;SDS011;55741;53.252;5.788;2022-07-29T00:44:15;5.78;;;2.30;;
54123;SDS011;55741;53.252;5.788;2022-07-29T00:46:43;5.88;;;2.60;;
54123;SDS011;55741;53.252;5.788;2022-07-29T00:49:09;5.60;;;1.92;;
54123;SDS011;55741;53.252;5.788;2022-07-29T00:51:37;4.00;;;2.22;;
54123;SDS011;55741;53.252;5.788;2022-07-29T00:54:04;7.28;;;2.80;;
54123;SDS011;55741;53.252;5.788;2022-07-29T00:56:31;5.88;;;2.30;;
54123;SDS011;55741;53.252;5.788;2022-07-29T00:58:57;5.90;;;2.63;;
54123;SDS011;55741;53.252;5.788;2022-07-29T01:01:23;5.40;;;2.50;;
54123;SDS011;55741;53.252;5.788;2022-07-29T01:03:49;8.05;;;2.65;;
54123;SDS011;55741;53.252;5.788;2022-07-29T01:06:16;5.75;;;2.22;;
54123;SDS011;55741;53.252;5.788;2022-07-29T01:08:43;7.78;;;2.45;;
54123;SDS011;55741;53.252;5.788;2022-07-29T01:11:10;4.80;;;2.42;;
54123;SDS011;55741;53.252;5.788;2022-07-29T01:13:37;6.28;;;2.30;;
54123;SDS011;55741;53.252;5.788;2022-07-29T01:16:04;5.97;;;2.50;;
54123;SDS011;55741;53.252;5.788;2022-07-29T01:18:52;6.60;;;2.70;;
54123;SDS011;55741;53.252;5.788;2022-07-29T01:30:06;4.95;;;2.10;;
54123;SDS011;55741;53.252;5.788;2022-07-29T01:32:33;4.47;;;2.25;;
54123;SDS011;55741;53.252;5.788;2022-07-29T01:40:40;5.35;;;1.90;;
54123;SDS011;55741;53.252;5.788;2022-07-29T01:43:27;5.57;;;2.10;;
54123;SDS011;55741;53.252;5.788;2022-07-29T01:46:14;6.28;;;2.10;;
54123;SDS011;55741;53.252;5.788;2022-07-29T01:48:48;4.65;;;2.05;;
54123;SDS011;55741;53.252;5.788;2022-07-29T01:52:11;4.60;;;2.67;;
54123;SDS011;55741;53.252;5.788;2022-07-29T01:54:22;4.88;;;2.17;;
54123;SDS011;55741;53.252;5.788;2022-07-29T01:56:55;5.82;;;2.60;;
54123;SDS011;55741;53.252;5.788;2022-07-29T01:59:24;4.30;;;2.25;;
54123;SDS011;55741;53.252;5.788;2022-07-29T02:01:52;4.32;;;2.20;;
54123;SDS011;55741;53.252;5.788;2022-07-29T02:04:19;4.90;;;2.33;;
54123;SDS011;55741;53.252;5.788;2022-07-29T02:06:45;5.55;;;2.45;;
54123;SDS011;55741;53.252;5.788;2022-07-29T02:09:15;6.38;;;2.47;;
54123;SDS011;55741;53.252;5.788;2022-07-29T02:11:44;6.40;;;2.45;;
54123;SDS011;55741;53.252;5.788;2022-07-29T02:14:15;7.40;;;2.60;;
54123;SDS011;55741;53.252;5.788;2022-07-29T02:16:42;6.00;;;2.35;;
54123;SDS011;55741;53.252;5.788;2022-07-29T02:19:09;9.85;;;2.30;;
54123;SDS011;55741;53.252;5.788;2022-07-29T02:21:37;5.35;;;2.35;;
54123;SDS011;55741;53.252;5.788;2022-07-29T02:24:04;8.93;;;2.65;;
54123;SDS011;55741;53.252;5.788;2022-07-29T02:26:31;8.38;;;3.55;;
54123;SDS011;55741;53.252;5.788;2022-07-29T02:28:59;6.13;;;2.55;;
54123;SDS011;55741;53.252;5.788;2022-07-29T02:31:27;4.85;;;2.10;;
54123;SDS011;55741;53.252;5.788;2022-07-29T02:34:05;5.17;;;2.17;;
54123;SDS011;55741;53.252;5.788;2022-07-29T02:36:33;7.63;;;2.90;;
54123;SDS011;55741;53.252;5.788;2022-07-29T02:39:00;8.50;;;2.75;;
54123;SDS011;55741;53.252;5.788;2022-07-29T02:44:16;5.82;;;2.63;;
54123;SDS011;55741;53.252;5.788;2022-07-29T02:46:49;7.60;;;2.25;;
54123;SDS011;55741;53.252;5.788;2022-07-29T02:51:46;6.22;;;1.95;;
54123;SDS011;55741;53.252;5.788;2022-07-29T02:54:30;7.15;;;2.10;;
54123;SDS011;55741;53.252;5.788;2022-07-29T02:58:01;4.68;;;2.00;;
54123;SDS011;55741;53.252;5.788;2022-07-29T03:00:26;4.90;;;2.10;;
54123;SDS011;55741;53.252;5.788;2022-07-29T03:02:55;3.88;;;2.10;;
54123;SDS011;55741;53.252;5.788;2022-07-29T03:05:23;5.25;;;2.17;;
54123;SDS011;55741;53.252;5.788;2022-07-29T03:08:12;5.30;;;2.08;;
54123;SDS011;55741;53.252;5.788;2022-07-29T03:10:39;4.47;;;2.33;;
54123;SDS011;55741;53.252;5.788;2022-07-29T03:13:07;6.15;;;2.40;;
54123;SDS011;55741;53.252;5.788;2022-07-29T03:15:34;9.57;;;2.17;;
54123;SDS011;55741;53.252;5.788;2022-07-29T03:18:00;5.80;;;2.00;;
54123;SDS011;55741;53.252;5.788;2022-07-29T03:20:27;6.35;;;1.95;;
54123;SDS011;55741;53.252;5.788;2022-07-29T03:22:53;8.48;;;2.40;;
54123;SDS011;55741;53.252;5.788;2022-07-29T03:25:19;5.25;;;2.15;;
54123;SDS011;55741;53.252;5.788;2022-07-29T03:27:45;7.50;;;2.10;;
54123;SDS011;55741;53.252;5.788;2022-07-29T03:30:12;10.48;;;2.17;;
54123;SDS011;55741;53.252;5.788;2022-07-29T03:32:39;6.32;;;2.42;;
54123;SDS011;55741;53.252;5.788;2022-07-29T03:35:05;8.63;;;2.50;;
54123;SDS011;55741;53.252;5.788;2022-07-29T03:37:32;6.35;;;2.55;;
54123;SDS011;55741;53.252;5.788;2022-07-29T03:39:58;6.60;;;2.80;;
54123;SDS011;55741;53.252;5.788;2022-07-29T03:42:28;7.90;;;3.05;;
54123;SDS011;55741;53.252;5.788;2022-07-29T03:44:58;7.45;;;2.63;;
54123;SDS011;55741;53.252;5.788;2022-07-29T03:47:27;6.50;;;2.13;;
54123;SDS011;55741;53.252;5.788;2022-07-29T03:49:59;5.03;;;2.30;;
54123;SDS011;55741;53.252;5.788;2022-07-29T03:52:27;5.25;;;2.50;;
54123;SDS011;55741;53.252;5.788;2022-07-29T03:54:53;4.60;;;2.40;;
54123;SDS011;55741;53.252;5.788;2022-07-29T03:57:20;5.25;;;2.47;;
54123;SDS011;55741;53.252;5.788;2022-07-29T03:59:51;6.72;;;2.70;;
54123;SDS011;55741;53.252;5.788;2022-07-29T04:02:18;5.35;;;2.50;;
54123;SDS011;55741;53.252;5.788;2022-07-29T04:04:45;6.00;;;2.45;;
54123;SDS011;55741;53.252;5.788;2022-07-29T04:07:14;4.60;;;2.30;;
54123;SDS011;55741;53.252;5.788;2022-07-29T04:09:40;3.50;;;2.10;;
54123;SDS011;55741;53.252;5.788;2022-07-29T04:12:07;5.15;;;2.20;;
54123;SDS011;55741;53.252;5.788;2022-07-29T04:14:33;4.30;;;2.08;;
54123;SDS011;55741;53.252;5.788;2022-07-29T04:17:00;6.57;;;2.35;;
54123;SDS011;55741;53.252;5.788;2022-07-29T04:19:26;4.97;;;2.30;;
54123;SDS011;55741;53.252;5.788;2022-07-29T04:21:52;7.22;;;2.53;;
54123;SDS011;55741;53.252;5.788;2022-07-29T04:24:18;5.85;;;2.50;;
54123;SDS011;55741;53.252;5.788;2022-07-29T04:26:45;10.27;;;3.33;;
54123;SDS011;55741;53.252;5.788;2022-07-29T04:29:11;5.05;;;2.30;;
54123;SDS011;55741;53.252;5.788;2022-07-29T04:31:39;9.35;;;2.65;;
54123;SDS011;55741;53.252;5.788;2022-07-29T04:34:05;5.40;;;2.10;;
54123;SDS011;55741;53.252;5.788;2022-07-29T04:36:31;6.20;;;2.28;;
54123;SDS011;55741;53.252;5.788;2022-07-29T04:38:57;6.18;;;2.30;;
54123;SDS011;55741;53.252;5.788;2022-07-29T04:41:23;6.80;;;2.30;;
54123;SDS011;55741;53.252;5.788;2022-07-29T04:43:49;6.30;;;2.30;;
54123;SDS011;55741;53.252;5.788;2022-07-29T04:46:15;8.32;;;2.40;;
54123;SDS011;55741;53.252;5.788;2022-07-29T04:48:41;5.05;;;2.10;;
54123;SDS011;55741;53.252;5.788;2022-07-29T04:51:08;7.70;;;2.65;;
54123;SDS011;55741;53.252;5.788;2022-07-29T04:53:34;8.00;;;2.20;;
54123;SDS011;55741;53.252;5.788;2022-07-29T04:56:00;5.03;;;2.40;;
54123;SDS011;55741;53.252;5.788;2022-07-29T04:58:26;5.75;;;2.15;;
54123;SDS011;55741;53.252;5.788;2022-07-29T05:00:51;6.45;;;2.15;;
54123;SDS011;55741;53.252;5.788;2022-07-29T05:03:17;4.72;;;2.60;;
54123;SDS011;55741;53.252;5.788;2022-07-29T05:05:43;6.82;;;2.20;;
54123;SDS011;55741;53.252;5.788;2022-07-29T05:08:09;8.68;;;2.38;;
54123;SDS011;55741;53.252;5.788;2022-07-29T05:10:35;7.65;;;2.38;;
54123;SDS011;55741;53.252;5.788;2022-07-29T05:13:04;6.03;;;2.45;;
54123;SDS011;55741;53.252;5.788;2022-07-29T05:15:31;8.35;;;2.40;;
54123;SDS011;55741;53.252;5.788;2022-07-29T05:17:58;7.70;;;2.30;;
54123;SDS011;55741;53.252;5.788;2022-07-29T05:20:24;5.40;;;2.08;;
54123;SDS011;55741;53.252;5.788;2022-07-29T05:22:54;9.48;;;2.90;;
54123;SDS011;55741;53.252;5.788;2022-07-29T05:25:21;6.50;;;2.53;;
54123;SDS011;55741;53.252;5.788;2022-07-29T05:27:47;6.40;;;2.42;;
54123;SDS011;55741;53.252;5.788;2022-07-29T05:30:13;4.97;;;2.00;;
54123;SDS011;55741;53.252;5.788;2022-07-29T05:32:38;8.65;;;2.25;;
54123;SDS011;55741;53.252;5.788;2022-07-29T05:35:04;9.85;;;2.38;;
54123;SDS011;55741;53.252;5.788;2022-07-29T05:37:31;5.50;;;2.20;;
54123;SDS011;55741;53.252;5.788;2022-07-29T05:39:57;7.40;;;2.03;;
54123;SDS011;55741;53.252;5.788;2022-07-29T05:42:23;7.07;;;2.30;;
54123;SDS011;55741;53.252;5.788;2022-07-29T05:44:49;5.80;;;2.33;;
54123;SDS011;55741;53.252;5.788;2022-07-29T05:47:16;9.02;;;2.53;;
54123;SDS011;55741;53.252;5.788;2022-07-29T05:49:42;7.20;;;1.98;;
54123;SDS011;55741;53.252;5.788;2022-07-29T05:52:09;8.82;;;2.65;;
54123;SDS011;55741;53.252;5.788;2022-07-29T05:54:35;7.95;;;2.00;;
54123;SDS011;55741;53.252;5.788;2022-07-29T05:57:02;7.95;;;2.20;;
54123;SDS011;55741;53.252;5.788;2022-07-29T05:59:28;9.57;;;2.72;;
54123;SDS011;55741;53.252;5.788;2022-07-29T06:01:54;6.72;;;2.05;;
54123;SDS011;55741;53.252;5.788;2022-07-29T06:04:20;5.75;;;2.83;;
54123;SDS011;55741;53.252;5.788;2022-07-29T06:06:46;6.85;;;2.53;;
54123;SDS011;55741;53.252;5.788;2022-07-29T06:09:11;7.18;;;2.10;;
54123;SDS011;55741;53.252;5.788;2022-07-29T06:11:37;7.82;;;2.40;;
54123;SDS011;55741;53.252;5.788;2022-07-29T06:14:03;8.73;;;2.25;;
54123;SDS011;55741;53.252;5.788;2022-07-29T06:16:29;9.00;;;2.28;;
54123;SDS011;55741;53.252;5.788;2022-07-29T06:18:55;8.75;;;2.40;;
54123;SDS011;55741;53.252;5.788;2022-07-29T06:21:20;5.93;;;1.70;;
54123;SDS011;55741;53.252;5.788;2022-07-29T06:23:46;5.15;;;1.77;;
54123;SDS011;55741;53.252;5.788;2022-07-29T06:26:12;5.75;;;1.77;;
54123;SDS011;55741;53.252;5.788;2022-07-29T06:28:38;8.82;;;2.92;;
54123;SDS011;55741;53.252;5.788;2022-07-29T06:31:04;4.93;;;2.40;;
54123;SDS011;55741;53.252;5.788;2022-07-29T06:33:30;8.70;;;2.50;;
54123;SDS011;55741;53.252;5.788;2022-07-29T06:35:56;9.20;;;2.33;;
54123;SDS011;55741;53.252;5.788;2022-07-29T06:38:22;5.63;;;2.00;;
54123;SDS011;55741;53.252;5.788;2022-07-29T06:40:48;4.35;;;1.90;;
54123;SDS011;55741;53.252;5.788;2022-07-29T06:43:36;7.53;;;1.98;;
54123;SDS011;55741;53.252;5.788;2022-07-29T06:46:06;5.10;;;1.95;;
54123;SDS011;55741;53.252;5.788;2022-07-29T06:48:34;11.27;;;2.20;;
54123;SDS011;55741;53.252;5.788;2022-07-29T06:51:01;10.95;;;2.00;;
54123;SDS011;55741;53.252;5.788;2022-07-29T06:53:30;7.70;;;2.33;;
54123;SDS011;55741;53.252;5.788;2022-07-29T06:55:58;8.50;;;1.92;;
54123;SDS011;55741;53.252;5.788;2022-07-29T06:58:26;7.70;;;2.75;;
54123;SDS011;55741;53.252;5.788;2022-07-29T07:00:53;5.30;;;2.00;;
54123;SDS011;55741;53.252;5.788;2022-07-29T07:03:19;5.72;;;2.00;;
54123;SDS011;55741;53.252;5.788;2022-07-29T07:05:45;5.15;;;2.20;;
54123;SDS011;55741;53.252;5.788;2022-07-29T07:08:11;6.93;;;2.00;;
54123;SDS011;55741;53.252;5.788;2022-07-29T07:10:38;8.07;;;2.10;;
54123;SDS011;55741;53.252;5.788;2022-07-29T07:13:04;6.05;;;2.38;;
54123;SDS011;55741;53.252;5.788;2022-07-29T07:15:30;10.70;;;2.00;;
54123;SDS011;55741;53.252;5.788;2022-07-29T07:17:56;5.72;;;1.98;;
54123;SDS011;55741;53.252;5.788;2022-07-29T07:20:23;9.13;;;2.05;;
54123;SDS011;55741;53.252;5.788;2022-07-29T07:22:50;9.30;;;2.35;;
54123;SDS011;55741;53.252;5.788;2022-07-29T07:25:15;6.97;;;1.95;;
54123;SDS011;55741;53.252;5.788;2022-07-29T07:27:43;5.43;;;1.60;;
54123;SDS011;55741;53.252;5.788;2022-07-29T07:30:12;5.10;;;2.30;;
54123;SDS011;55741;53.252;5.788;2022-07-29T07:32:38;4.93;;;1.80;;
54123;SDS011;55741;53.252;5.788;2022-07-29T07:35:05;8.05;;;1.83;;
54123;SDS011;55741;53.252;5.788;2022-07-29T07:37:32;6.07;;;2.00;;
54123;SDS011;55741;53.252;5.788;2022-07-29T07:39:58;5.63;;;1.90;;
54123;SDS011;55741;53.252;5.788;2022-07-29T07:42:24;11.25;;;2.88;;
54123;SDS011;55741;53.252;5.788;2022-07-29T07:44:50;8.27;;;2.03;;
54123;SDS011;55741;53.252;5.788;2022-07-29T07:47:16;5.13;;;1.80;;
54123;SDS011;55741;53.252;5.788;2022-07-29T07:49:47;4.20;;;1.70;;
54123;SDS011;55741;53.252;5.788;2022-07-29T07:52:15;3.95;;;2.03;;
54123;SDS011;55741;53.252;5.788;2022-07-29T07:54:44;5.70;;;2.17;;
54123;SDS011;55741;53.252;5.788;2022-07-29T07:57:10;8.65;;;2.22;;
54123;SDS011;55741;53.252;5.788;2022-07-29T07:59:37;5.05;;;2.05;;
54123;SDS011;55741;53.252;5.788;2022-07-29T08:02:03;12.82;;;2.55;;
54123;SDS011;55741;53.252;5.788;2022-07-29T08:04:30;8.60;;;2.30;;
54123;SDS011;55741;53.252;5.788;2022-07-29T08:06:56;4.90;;;1.90;;
54123;SDS011;55741;53.252;5.788;2022-07-29T08:09:23;8.40;;;1.95;;
54123;SDS011;55741;53.252;5.788;2022-07-29T08:11:51;5.32;;;1.90;;
54123;SDS011;55741;53.252;5.788;2022-07-29T08:14:18;5.15;;;2.00;;
54123;SDS011;55741;53.252;5.788;2022-07-29T08:16:44;6.20;;;2.13;;
54123;SDS011;55741;53.252;5.788;2022-07-29T08:19:10;7.15;;;1.90;;
54123;SDS011;55741;53.252;5.788;2022-07-29T08:21:36;6.85;;;2.15;;
54123;SDS011;55741;53.252;5.788;2022-07-29T08:24:03;7.57;;;2.60;;
54123;SDS011;55741;53.252;5.788;2022-07-29T08:26:48;5.90;;;2.05;;
54123;SDS011;55741;53.252;5.788;2022-07-29T08:29:14;6.00;;;2.30;;
54123;SDS011;55741;53.252;5.788;2022-07-29T08:31:40;7.05;;;2.40;;
54123;SDS011;55741;53.252;5.788;2022-07-29T08:34:06;8.07;;;2.63;;
54123;SDS011;55741;53.252;5.788;2022-07-29T08:36:32;10.02;;;3.17;;
54123;SDS011;55741;53.252;5.788;2022-07-29T08:38:59;7.40;;;2.42;;
54123;SDS011;55741;53.252;5.788;2022-07-29T08:41:26;7.68;;;2.53;;
54123;SDS011;55741;53.252;5.788;2022-07-29T08:43:52;7.63;;;2.50;;
54123;SDS011;55741;53.252;5.788;2022-07-29T08:46:19;9.07;;;2.53;;
54123;SDS011;55741;53.252;5.788;2022-07-29T08:48:45;6.55;;;2.25;;
54123;SDS011;55741;53.252;5.788;2022-07-29T08:51:12;7.93;;;1.90;;
54123;SDS011;55741;53.252;5.788;2022-07-29T08:53:41;5.93;;;2.10;;
54123;SDS011;55741;53.252;5.788;2022-07-29T08:56:13;5.65;;;2.28;;
54123;SDS011;55741;53.252;5.788;2022-07-29T08:58:40;7.93;;;2.60;;
54123;SDS011;55741;53.252;5.788;2022-07-29T09:01:06;4.38;;;2.13;;
54123;SDS011;55741;53.252;5.788;2022-07-29T09:03:34;14.05;;;2.63;;
54123;SDS011;55741;53.252;5.788;2022-07-29T09:06:02;8.45;;;2.85;;
54123;SDS011;55741;53.252;5.788;2022-07-29T09:08:32;12.50;;;2.60;;
54123;SDS011;55741;53.252;5.788;2022-07-29T09:11:00;8.18;;;2.55;;
54123;SDS011;55741;53.252;5.788;2022-07-29T09:13:26;8.57;;;3.05;;
54123;SDS011;55741;53.252;5.788;2022-07-29T09:15:52;11.27;;;2.78;;
54123;SDS011;55741;53.252;5.788;2022-07-29T09:21:07;8.20;;;3.05;;
54123;SDS011;55741;53.252;5.788;2022-07-29T09:26:39;8.30;;;2.35;;
54123;SDS011;55741;53.252;5.788;2022-07-29T09:29:09;6.13;;;2.33;;
54123;SDS011;55741;53.252;5.788;2022-07-29T09:31:39;5.97;;;2.40;;
54123;SDS011;55741;53.252;5.788;2022-07-29T09:34:08;9.43;;;2.70;;
54123;SDS011;55741;53.252;5.788;2022-07-29T09:36:38;6.60;;;2.50;;
54123;SDS011;55741;53.252;5.788;2022-07-29T09:39:08;7.18;;;2.67;;
54123;SDS011;55741;53.252;5.788;2022-07-29T09:41:53;6.10;;;2.60;;
54123;SDS011;55741;53.252;5.788;2022-07-29T09:44:20;9.63;;;2.85;;
54123;SDS011;55741;53.252;5.788;2022-07-29T09:49:24;8.77;;;2.97;;
54123;SDS011;55741;53.252;5.788;2022-07-29T09:52:03;6.68;;;2.75;;
54123;SDS011;55741;53.252;5.788;2022-07-29T09:54:31;9.00;;;3.00;;
54123;SDS011;55741;53.252;5.788;2022-07-29T09:57:09;8.15;;;2.72;;
54123;SDS011;55741;53.252;5.788;2022-07-29T09:59:56;6.97;;;2.72;;
54123;SDS011;55741;53.252;5.788;2022-07-29T10:02:27;10.57;;;2.92;;
54123;SDS011;55741;53.252;5.788;2022-07-29T10:04:57;9.88;;;5.57;;
54123;SDS011;55741;53.252;5.788;2022-07-29T10:07:24;11.43;;;3.25;;
54123;SDS011;55741;53.252;5.788;2022-07-29T10:09:54;9.00;;;3.35;;
54123;SDS011;55741;53.252;5.788;2022-07-29T10:12:21;9.10;;;2.90;;
54123;SDS011;55741;53.252;5.788;2022-07-29T10:14:47;11.15;;;2.88;;
54123;SDS011;55741;53.252;5.788;2022-07-29T10:17:14;7.40;;;2.97;;
54123;SDS011;55741;53.252;5.788;2022-07-29T10:19:42;8.73;;;2.60;;
54123;SDS011;55741;53.252;5.788;2022-07-29T10:22:08;12.50;;;2.75;;
54123;SDS011;55741;53.252;5.788;2022-07-29T10:24:36;8.02;;;2.90;;
54123;SDS011;55741;53.252;5.788;2022-07-29T10:27:04;8.25;;;3.38;;
54123;SDS011;55741;53.252;5.788;2022-07-29T10:29:31;9.38;;;2.97;;
54123;SDS011;55741;53.252;5.788;2022-07-29T10:34:49;11.57;;;2.78;;
54123;SDS011;55741;53.252;5.788;2022-07-29T10:37:33;7.40;;;3.10;;
54123;SDS011;55741;53.252;5.788;2022-07-29T10:43:23;8.38;;;3.63;;
54123;SDS011;55741;53.252;5.788;2022-07-29T10:45:55;8.02;;;3.03;;
54123;SDS011;55741;53.252;5.788;2022-07-29T10:48:22;11.63;;;3.47;;
54123;SDS011;55741;53.252;5.788;2022-07-29T10:50:56;12.75;;;3.25;;
54123;SDS011;55741;53.252;5.788;2022-07-29T10:53:47;8.70;;;3.42;;
54123;SDS011;55741;53.252;5.788;2022-07-29T10:56:24;11.68;;;3.30;;
54123;SDS011;55741;53.252;5.788;2022-07-29T11:01:51;9.70;;;3.00;;
54123;SDS011;55741;53.252;5.788;2022-07-29T11:07:08;8.13;;;2.53;;
54123;SDS011;55741;53.252;5.788;2022-07-29T11:09:35;8.52;;;3.17;;
54123;SDS011;55741;53.252;5.788;2022-07-29T11:12:01;6.63;;;3.10;;
54123;SDS011;55741;53.252;5.788;2022-07-29T11:17:24;6.03;;;3.00;;
54123;SDS011;55741;53.252;5.788;2022-07-29T11:19:50;8.02;;;3.42;;
54123;SDS011;55741;53.252;5.788;2022-07-29T11:22:32;9.43;;;4.05;;
54123;SDS011;55741;53.252;5.788;2022-07-29T11:25:21;7.50;;;3.17;;
54123;SDS011;55741;53.252;5.788;2022-07-29T11:27:46;8.02;;;3.45;;
54123;SDS011;55741;53.252;5.788;2022-07-29T11:30:12;11.57;;;4.50;;
54123;SDS011;55741;53.252;5.788;2022-07-29T11:32:40;6.22;;;3.63;;
54123;SDS011;55741;53.252;5.788;2022-07-29T11:35:14;6.10;;;3.40;;
54123;SDS011;55741;53.252;5.788;2022-07-29T11:37:42;8.55;;;3.67;;
54123;SDS011;55741;53.252;5.788;2022-07-29T11:40:12;11.23;;;3.50;;
54123;SDS011;55741;53.252;5.788;2022-07-29T11:42:40;8.77;;;3.33;;
54123;SDS011;55741;53.252;5.788;2022-07-29T11:50:12;9.10;;;3.75;;
54123;SDS011;55741;53.252;5.788;2022-07-29T11:52:40;10.48;;;4.38;;
54123;SDS011;55741;53.252;5.788;2022-07-29T11:55:12;7.70;;;3.33;;
54123;SDS011;55741;53.252;5.788;2022-07-29T11:57:47;9.13;;;3.50;;
54123;SDS011;55741;53.252;5.788;2022-07-29T12:02:48;5.15;;;3.45;;
54123;SDS011;55741;53.252;5.788;2022-07-29T12:05:14;12.60;;;3.97;;
54123;SDS011;55741;53.252;5.788;2022-07-29T12:07:40;6.18;;;3.53;;
54123;SDS011;55741;53.252;5.788;2022-07-29T12:10:06;7.13;;;3.85;;
54123;SDS011;55741;53.252;5.788;2022-07-29T12:12:33;8.45;;;3.67;;
54123;SDS011;55741;53.252;5.788;2022-07-29T12:20:12;8.05;;;3.40;;
54123;SDS011;55741;53.252;5.788;2022-07-29T12:22:39;9.57;;;3.30;;
54123;SDS011;55741;53.252;5.788;2022-07-29T12:25:10;9.35;;;3.92;;
54123;SDS011;55741;53.252;5.788;2022-07-29T12:27:43;9.73;;;3.35;;
54123;SDS011;55741;53.252;5.788;2022-07-29T12:30:10;9.63;;;3.78;;
54123;SDS011;55741;53.252;5.788;2022-07-29T12:32:44;9.30;;;3.53;;
54123;SDS011;55741;53.252;5.788;2022-07-29T12:35:13;9.15;;;3.40;;
54123;SDS011;55741;53.252;5.788;2022-07-29T12:37:41;7.43;;;3.60;;
54123;SDS011;55741;53.252;5.788;2022-07-29T12:40:09;10.05;;;3.40;;
54123;SDS011;55741;53.252;5.788;2022-07-29T12:42:38;8.05;;;4.07;;
54123;SDS011;55741;53.252;5.788;2022-07-29T12:45:04;9.95;;;3.95;;
54123;SDS011;55741;53.252;5.788;2022-07-29T12:47:31;9.13;;;3.90;;
54123;SDS011;55741;53.252;5.788;2022-07-29T12:50:07;9.75;;;3.53;;
54123;SDS011;55741;53.252;5.788;2022-07-29T12:52:34;9.88;;;3.30;;
54123;SDS011;55741;53.252;5.788;2022-07-29T12:55:00;9.40;;;3.50;;
54123;SDS011;55741;53.252;5.788;2022-07-29T12:57:26;9.73;;;3.50;;
54123;SDS011;55741;53.252;5.788;2022-07-29T13:00:06;9.85;;;3.90;;
54123;SDS011;55741;53.252;5.788;2022-07-29T13:02:40;9.10;;;3.22;;
54123;SDS011;55741;53.252;5.788;2022-07-29T13:05:08;9.63;;;3.88;;
54123;SDS011;55741;53.252;5.788;2022-07-29T13:07:36;7.15;;;3.55;;
54123;SDS011;55741;53.252;5.788;2022-07-29T13:10:23;10.85;;;3.80;;
54123;SDS011;55741;53.252;5.788;2022-07-29T13:13:01;13.50;;;3.70;;
54123;SDS011;55741;53.252;5.788;2022-07-29T13:15:32;10.00;;;4.07;;
54123;SDS011;55741;53.252;5.788;2022-07-29T13:17:58;8.00;;;3.92;;
54123;SDS011;55741;53.252;5.788;2022-07-29T13:20:25;7.82;;;3.60;;
54123;SDS011;55741;53.252;5.788;2022-07-29T13:22:55;13.80;;;4.57;;
54123;SDS011;55741;53.252;5.788;2022-07-29T13:25:26;11.30;;;4.10;;
54123;SDS011;55741;53.252;5.788;2022-07-29T13:27:54;13.45;;;4.10;;
54123;SDS011;55741;53.252;5.788;2022-07-29T13:30:21;7.22;;;3.55;;
54123;SDS011;55741;53.252;5.788;2022-07-29T13:32:47;10.32;;;3.92;;
54123;SDS011;55741;53.252;5.788;2022-07-29T13:35:13;12.10;;;4.00;;
54123;SDS011;55741;53.252;5.788;2022-07-29T13:37:40;10.35;;;3.60;;
54123;SDS011;55741;53.252;5.788;2022-07-29T13:40:06;19.88;;;4.15;;
54123;SDS011;55741;53.252;5.788;2022-07-29T13:42:33;12.45;;;4.47;;
54123;SDS011;55741;53.252;5.788;2022-07-29T13:44:59;13.48;;;4.45;;
54123;SDS011;55741;53.252;5.788;2022-07-29T13:47:26;8.60;;;3.78;;
54123;SDS011;55741;53.252;5.788;2022-07-29T13:49:53;11.27;;;4.25;;
54123;SDS011;55741;53.252;5.788;2022-07-29T13:52:19;9.05;;;3.58;;
54123;SDS011;55741;53.252;5.788;2022-07-29T13:54:46;8.48;;;3.78;;
54123;SDS011;55741;53.252;5.788;2022-07-29T13:57:12;11.80;;;4.30;;
54123;SDS011;55741;53.252;5.788;2022-07-29T13:59:41;10.80;;;3.72;;
54123;SDS011;55741;53.252;5.788;2022-07-29T14:02:09;6.65;;;3.70;;
54123;SDS011;55741;53.252;5.788;2022-07-29T14:04:37;10.63;;;3.50;;
54123;SDS011;55741;53.252;5.788;2022-07-29T14:07:03;12.90;;;4.28;;
54123;SDS011;55741;53.252;5.788;2022-07-29T14:09:29;9.45;;;3.97;;
54123;SDS011;55741;53.252;5.788;2022-07-29T14:11:55;7.10;;;3.80;;
54123;SDS011;55741;53.252;5.788;2022-07-29T14:14:21;9.90;;;3.60;;
54123;SDS011;55741;53.252;5.788;2022-07-29T14:16:47;7.75;;;3.55;;
54123;SDS011;55741;53.252;5.788;2022-07-29T14:19:13;10.93;;;3.72;;
54123;SDS011;55741;53.252;5.788;2022-07-29T14:21:38;8.35;;;3.55;;
54123;SDS011;55741;53.252;5.788;2022-07-29T14:24:04;11.05;;;4.22;;
54123;SDS011;55741;53.252;5.788;2022-07-29T14:26:31;7.40;;;3.60;;
54123;SDS011;55741;53.252;5.788;2022-07-29T14:28:57;10.80;;;3.83;;
54123;SDS011;55741;53.252;5.788;2022-07-29T14:31:23;7.70;;;4.03;;
54123;SDS011;55741;53.252;5.788;2022-07-29T14:33:49;8.02;;;3.35;;
54123;SDS011;55741;53.252;5.788;2022-07-29T14:36:15;9.60;;;4.13;;
54123;SDS011;55741;53.252;5.788;2022-07-29T14:38:41;8.25;;;3.40;;
54123;SDS011;55741;53.252;5.788;2022-07-29T14:41:07;7.22;;;2.95;;
54123;SDS011;55741;53.252;5.788;2022-07-29T14:43:33;12.55;;;3.60;;
54123;SDS011;55741;53.252;5.788;2022-07-29T14:46:00;6.70;;;3.38;;
54123;SDS011;55741;53.252;5.788;2022-07-29T14:48:26;6.60;;;3.42;;
54123;SDS011;55741;53.252;5.788;2022-07-29T14:50:53;8.65;;;3.50;;
54123;SDS011;55741;53.252;5.788;2022-07-29T14:53:19;11.23;;;3.45;;
54123;SDS011;55741;53.252;5.788;2022-07-29T14:55:45;11.82;;;3.85;;
54123;SDS011;55741;53.252;5.788;2022-07-29T14:58:11;9.40;;;3.50;;
54123;SDS011;55741;53.252;5.788;2022-07-29T15:00:37;10.65;;;3.67;;
54123;SDS011;55741;53.252;5.788;2022-07-29T15:03:03;8.80;;;3.05;;
54123;SDS011;55741;53.252;5.788;2022-07-29T15:05:31;9.25;;;3.00;;
54123;SDS011;55741;53.252;5.788;2022-07-29T15:07:58;8.52;;;3.25;;
54123;SDS011;55741;53.252;5.788;2022-07-29T15:10:24;5.82;;;3.53;;
54123;SDS011;55741;53.252;5.788;2022-07-29T15:12:54;9.93;;;3.30;;
54123;SDS011;55741;53.252;5.788;2022-07-29T15:15:20;9.43;;;3.30;;
54123;SDS011;55741;53.252;5.788;2022-07-29T15:17:46;8.68;;;3.35;;
54123;SDS011;55741;53.252;5.788;2022-07-29T15:20:14;7.50;;;3.45;;
54123;SDS011;55741;53.252;5.788;2022-07-29T15:22:42;7.68;;;3.28;;
54123;SDS011;55741;53.252;5.788;2022-07-29T15:25:08;5.57;;;3.58;;
54123;SDS011;55741;53.252;5.788;2022-07-29T15:27:34;10.77;;;4.10;;
54123;SDS011;55741;53.252;5.788;2022-07-29T15:30:00;9.80;;;3.50;;
54123;SDS011;55741;53.252;5.788;2022-07-29T15:32:26;10.23;;;3.88;;
54123;SDS011;55741;53.252;5.788;2022-07-29T15:34:52;9.10;;;3.72;;
54123;SDS011;55741;53.252;5.788;2022-07-29T15:37:18;10.45;;;3.92;;
54123;SDS011;55741;53.252;5.788;2022-07-29T15:39:44;7.22;;;3.30;;
54123;SDS011;55741;53.252;5.788;2022-07-29T15:42:09;7.35;;;4.15;;
54123;SDS011;55741;53.252;5.788;2022-07-29T15:44:35;7.90;;;3.90;;
54123;SDS011;55741;53.252;5.788;2022-07-29T15:47:01;9.52;;;3.67;;